Terminal Aerodrome Forecast
Issued by NWS Dodge City, KS

Home | Current Version | Previous Version | Text Only | Print | Product List | Glossary Off
Versions: 1 2 3 4 5 6 7 8 9 10 11 12 13 14 15 16 17 18 19 20 21 22 23 24 25 26 27 28 29 30 31 32 33 34 35 36 37 38 39 40 41 42 43 44 45 46 47 48

893
FTUS43 KDDC 221724
TAFDDC
TAF
KDDC 221724Z 2218/2318 23010KT P6SM VCSH BKN040
      TEMPO 2218/2220 4SM -RA
     FM222100 29005KT P6SM BKN110
     FM230400 32012KT P6SM BKN120=

USA.gov is the U.S. government's official web portal to all federal, state and local government web resources and services.